createdAt,value
2018-07-02T00:00:32.010Z,17.88
2018-07-02T00:01:31.959Z,17.87
2018-07-02T00:02:31.911Z,17.76
2018-07-02T00:03:31.864Z,17.81
2018-07-02T00:04:31.807Z,17.79
2018-07-02T00:05:31.759Z,17.81
2018-07-02T00:06:31.707Z,17.70
2018-07-02T00:07:31.658Z,17.69
2018-07-02T00:08:31.621Z,17.69
2018-07-02T00:09:31.557Z,17.82
2018-07-02T00:10:31.509Z,17.85
2018-07-02T00:11:31.455Z,17.88
2018-07-02T00:12:31.404Z,17.88
2018-07-02T00:13:31.355Z,17.85
2018-07-02T00:14:31.307Z,17.99
2018-07-02T00:15:31.254Z,18.02
2018-07-02T00:16:31.204Z,18.03
2018-07-02T00:17:31.152Z,17.82
2018-07-02T00:18:31.100Z,17.88
2018-07-02T00:19:31.051Z,17.84
2018-07-02T00:20:31.002Z,17.91
2018-07-02T00:21:30.951Z,17.85
2018-07-02T00:22:30.898Z,17.91
2018-07-02T00:23:30.847Z,17.84
2018-07-02T00:24:30.798Z,17.85
2018-07-02T00:25:30.751Z,17.89
2018-07-02T00:26:30.697Z,17.85
2018-07-02T00:27:30.649Z,17.81
2018-07-02T00:28:30.597Z,17.74
2018-07-02T00:29:30.548Z,17.74
2018-07-02T00:30:30.495Z,17.78
2018-07-02T00:31:30.444Z,17.76
2018-07-02T00:32:30.397Z,17.78
2018-07-02T00:33:30.343Z,17.74
2018-07-02T00:34:30.292Z,17.69
2018-07-02T00:35:30.243Z,17.70
2018-07-02T00:36:30.192Z,17.69
2018-07-02T00:37:30.142Z,17.69
2018-07-02T00:38:30.091Z,17.78
2018-07-02T00:39:30.042Z,17.79
2018-07-02T00:40:29.990Z,17.79
2018-07-02T00:41:29.938Z,17.82
2018-07-02T00:42:29.893Z,17.79
2018-07-02T00:43:29.840Z,17.79
2018-07-02T00:44:29.789Z,17.71
2018-07-02T00:45:29.745Z,17.66
2018-07-02T00:46:29.685Z,17.73
2018-07-02T00:47:29.635Z,17.78
2018-07-02T00:48:29.589Z,17.81
2018-07-02T00:49:29.533Z,17.82
2018-07-02T00:50:29.483Z,17.76
2018-07-02T00:51:29.437Z,17.89
2018-07-02T00:52:29.382Z,17.89
2018-07-02T00:53:29.334Z,17.84
2018-07-02T00:54:29.279Z,17.87
2018-07-02T00:55:29.228Z,17.82
2018-07-02T00:56:29.177Z,17.76
2018-07-02T00:57:29.128Z,17.73
2018-07-02T00:58:29.076Z,17.69
2018-07-02T00:59:29.028Z,17.66
2018-07-02T01:00:28.978Z,17.57
2018-07-02T01:01:28.926Z,17.62
2018-07-02T01:02:28.873Z,17.62
2018-07-02T01:03:28.822Z,17.59
2018-07-02T01:04:28.771Z,17.59
2018-07-02T01:05:28.724Z,17.54
2018-07-02T01:06:28.673Z,17.54
2018-07-02T01:07:28.623Z,17.54
2018-07-02T01:08:28.569Z,17.50
2018-07-02T01:09:28.518Z,17.53
2018-07-02T01:10:28.466Z,17.47
2018-07-02T01:11:28.418Z,17.29
2018-07-02T01:12:28.371Z,17.36
2018-07-02T01:13:28.316Z,17.36
2018-07-02T01:14:28.264Z,17.32
2018-07-02T01:15:28.214Z,17.32
2018-07-02T01:16:28.163Z,17.32
2018-07-02T01:17:28.113Z,17.29
2018-07-02T01:18:28.060Z,17.25
2018-07-02T01:19:28.012Z,17.11
2018-07-02T01:20:27.960Z,17.11
2018-07-02T01:21:27.908Z,17.10
2018-07-02T01:22:27.859Z,17.11
2018-07-02T01:23:27.806Z,17.07
2018-07-02T01:24:27.757Z,17.08
2018-07-02T01:25:27.707Z,17.08
2018-07-02T01:26:27.653Z,17.08
2018-07-02T01:27:27.604Z,17.11
2018-07-02T01:28:27.552Z,17.18
2018-07-02T01:29:27.501Z,17.04
2018-07-02T01:30:27.449Z,16.98
2018-07-02T01:31:27.400Z,16.96
2018-07-02T01:32:27.349Z,17.07
2018-07-02T01:33:27.299Z,17.00
2018-07-02T01:34:27.246Z,16.81
2018-07-02T01:35:27.198Z,16.89
2018-07-02T01:36:27.144Z,16.85
2018-07-02T01:37:27.094Z,16.89
2018-07-02T01:38:27.041Z,16.86
2018-07-02T01:39:26.991Z,16.89
2018-07-02T01:40:26.940Z,16.95
2018-07-02T01:41:26.888Z,16.95
2018-07-02T01:42:26.836Z,16.88
2018-07-02T01:43:26.786Z,16.92
2018-07-02T01:44:26.734Z,16.89
2018-07-02T01:45:26.687Z,16.85
2018-07-02T01:46:26.632Z,16.77
2018-07-02T01:47:26.581Z,16.78
2018-07-02T01:48:26.531Z,16.74
2018-07-02T01:49:26.485Z,16.74
2018-07-02T01:50:26.426Z,16.83
2018-07-02T01:51:26.377Z,16.74
2018-07-02T01:52:26.326Z,16.83
2018-07-02T01:53:26.275Z,16.86
2018-07-02T01:54:26.225Z,16.88
2018-07-02T01:55:26.174Z,16.89
2018-07-02T01:56:26.121Z,16.93
2018-07-02T01:57:26.071Z,16.86
2018-07-02T01:58:26.017Z,16.93
2018-07-02T01:59:25.965Z,16.90
2018-07-02T02:00:25.916Z,16.90
2018-07-02T02:01:25.865Z,16.81
2018-07-02T02:02:25.811Z,16.75
2018-07-02T02:03:25.763Z,16.85
2018-07-02T02:04:25.709Z,16.78
2018-07-02T02:05:25.658Z,16.83
2018-07-02T02:06:25.606Z,16.75
2018-07-02T02:07:25.556Z,16.68
2018-07-02T02:08:25.504Z,16.73
2018-07-02T02:09:25.452Z,16.67
2018-07-02T02:10:25.405Z,16.70
2018-07-02T02:11:25.349Z,16.73
2018-07-02T02:12:25.303Z,16.55
2018-07-02T02:13:25.248Z,16.55
2018-07-02T02:14:25.198Z,16.58
2018-07-02T02:15:25.145Z,16.56
2018-07-02T02:16:25.093Z,16.44
2018-07-02T02:17:25.042Z,16.34
2018-07-02T02:18:24.992Z,16.18
2018-07-02T02:19:24.938Z,16.14
2018-07-02T02:20:24.888Z,16.04
2018-07-02T02:21:24.841Z,16.03
2018-07-02T02:22:24.785Z,16.07
2018-07-02T02:23:24.732Z,15.96
2018-07-02T02:24:24.682Z,15.94
2018-07-02T02:25:24.634Z,15.94
2018-07-02T02:26:24.578Z,15.96
2018-07-02T02:27:24.527Z,15.97
2018-07-02T02:28:24.477Z,16.12
2018-07-02T02:29:24.425Z,16.00
2018-07-02T02:30:24.374Z,16.20
2018-07-02T02:31:24.322Z,16.12
2018-07-02T02:32:24.270Z,16.11
2018-07-02T02:33:24.249Z,16.04
2018-07-02T02:34:24.170Z,16.11
2018-07-02T02:35:24.115Z,16.01
2018-07-02T02:36:24.065Z,16.01
2018-07-02T02:37:24.012Z,15.96
2018-07-02T02:38:23.969Z,15.86
2018-07-02T02:39:23.908Z,15.84
2018-07-02T02:40:23.857Z,15.68
2018-07-02T02:41:23.804Z,15.60
2018-07-02T02:42:23.756Z,15.67
2018-07-02T02:43:23.701Z,15.59
2018-07-02T02:44:23.649Z,15.52
2018-07-02T02:45:23.599Z,15.54
2018-07-02T02:46:23.546Z,15.49
2018-07-02T02:47:23.497Z,15.48
2018-07-02T02:48:23.443Z,15.43
2018-07-02T02:49:23.391Z,15.38
2018-07-02T02:50:23.337Z,15.35
2018-07-02T02:51:23.286Z,15.39
2018-07-02T02:52:23.234Z,15.38
2018-07-02T02:53:23.183Z,15.33
2018-07-02T02:54:23.131Z,15.31
2018-07-02T02:55:23.079Z,15.20
2018-07-02T02:56:23.029Z,15.20
2018-07-02T02:57:22.975Z,15.21
2018-07-02T02:58:22.922Z,15.21
2018-07-02T02:59:22.869Z,15.03
2018-07-02T03:00:22.818Z,15.11
2018-07-02T03:01:22.769Z,14.98
2018-07-02T03:02:22.713Z,15.03
2018-07-02T03:03:22.662Z,14.94
2018-07-02T03:04:22.610Z,14.95
2018-07-02T03:05:22.558Z,15.02
2018-07-02T03:06:22.507Z,14.94
2018-07-02T03:07:22.453Z,15.12
2018-07-02T03:08:22.401Z,15.03
2018-07-02T03:09:22.348Z,15.11
2018-07-02T03:10:22.296Z,15.09
2018-07-02T03:11:22.244Z,15.09
2018-07-02T03:12:22.196Z,15.15
2018-07-02T03:13:22.145Z,15.09
2018-07-02T03:14:22.087Z,15.06
2018-07-02T03:15:22.035Z,15.08
2018-07-02T03:16:21.980Z,15.09
2018-07-02T03:17:21.930Z,15.08
2018-07-02T03:18:21.877Z,15.17
2018-07-02T03:19:21.826Z,15.15
2018-07-02T03:20:21.815Z,15.19
2018-07-02T03:21:21.721Z,15.13
2018-07-02T03:22:21.667Z,15.09
2018-07-02T03:23:21.619Z,15.01
2018-07-02T03:24:21.564Z,15.03
2018-07-02T03:25:21.513Z,15.05
2018-07-02T03:26:21.511Z,14.90
2018-07-02T03:27:21.405Z,14.91
2018-07-02T03:28:21.354Z,14.91
2018-07-02T03:29:21.301Z,14.83
2018-07-02T03:30:21.255Z,14.80
2018-07-02T03:31:21.196Z,14.72
2018-07-02T03:32:21.145Z,14.67
2018-07-02T03:33:21.091Z,14.67
2018-07-02T03:34:21.044Z,14.62
2018-07-02T03:35:20.988Z,14.53
2018-07-02T03:36:20.934Z,14.46
2018-07-02T03:37:20.882Z,14.47
2018-07-02T03:38:20.828Z,14.42
2018-07-02T03:39:20.777Z,14.35
2018-07-02T03:40:20.723Z,14.42
2018-07-02T03:41:20.672Z,14.42
2018-07-02T03:42:20.618Z,14.34
2018-07-02T03:43:20.567Z,14.28
2018-07-02T03:44:20.513Z,14.28
2018-07-02T03:45:20.463Z,14.29
2018-07-02T03:46:20.411Z,14.27
2018-07-02T03:47:20.357Z,14.27
2018-07-02T03:48:20.304Z,14.27
2018-07-02T03:49:20.253Z,14.13
2018-07-02T03:50:20.206Z,14.19
2018-07-02T03:51:20.148Z,14.14
2018-07-02T03:52:20.094Z,14.07
2018-07-02T03:53:20.041Z,13.92
2018-07-02T03:54:19.989Z,13.96
2018-07-02T03:55:19.938Z,13.88
2018-07-02T03:56:19.885Z,13.89
2018-07-02T03:57:19.837Z,13.94
2018-07-02T03:58:19.778Z,13.98
2018-07-02T03:59:19.728Z,13.94
2018-07-02T04:00:19.674Z,13.98
2018-07-02T04:01:19.723Z,13.89
2018-07-02T04:02:19.570Z,13.89
2018-07-02T04:03:19.523Z,13.84
2018-07-02T04:04:19.462Z,13.84
2018-07-02T04:05:19.412Z,13.87
2018-07-02T04:06:19.357Z,13.84
2018-07-02T04:07:19.304Z,13.84
2018-07-02T04:08:19.253Z,13.81
2018-07-02T04:09:19.204Z,13.81
2018-07-02T04:10:19.146Z,13.83
2018-07-02T04:11:19.093Z,13.87
2018-07-02T04:12:19.041Z,13.80
2018-07-02T04:13:18.992Z,13.87
2018-07-02T04:14:18.935Z,13.80
2018-07-02T04:15:18.886Z,13.83
2018-07-02T04:16:18.830Z,13.80
2018-07-02T04:17:18.778Z,13.92
2018-07-02T04:18:18.725Z,14.07
2018-07-02T04:19:18.672Z,14.04
2018-07-02T04:20:18.620Z,14.04
2018-07-02T04:21:18.571Z,14.13
2018-07-02T04:22:18.514Z,14.16
2018-07-02T04:23:18.461Z,14.19
2018-07-02T04:24:18.410Z,14.25
2018-07-02T04:25:18.357Z,14.29
2018-07-02T04:26:18.303Z,14.39
2018-07-02T04:27:18.250Z,14.39
2018-07-02T04:28:18.196Z,14.46
2018-07-02T04:29:18.143Z,14.60
2018-07-02T04:30:18.091Z,14.53
2018-07-02T04:31:18.039Z,14.68
2018-07-02T04:32:17.987Z,14.65
2018-07-02T04:33:17.940Z,14.64
2018-07-02T04:34:17.914Z,14.67
2018-07-02T04:35:17.837Z,14.71
2018-07-02T04:36:17.778Z,14.68
2018-07-02T04:37:17.724Z,14.67
2018-07-02T04:38:17.671Z,14.71
2018-07-02T04:39:17.620Z,14.69
2018-07-02T04:40:17.566Z,14.78
2018-07-02T04:41:17.515Z,14.78
2018-07-02T04:42:17.461Z,14.84
2018-07-02T04:43:17.407Z,14.90
2018-07-02T04:44:17.356Z,14.90
2018-07-02T04:45:17.329Z,14.86
2018-07-02T04:46:17.295Z,14.84
2018-07-02T04:47:17.205Z,14.88
2018-07-02T04:48:17.146Z,14.98
2018-07-02T04:49:17.095Z,14.95
2018-07-02T04:50:17.039Z,14.95
2018-07-02T04:51:16.988Z,14.98
2018-07-02T04:52:16.935Z,15.05
2018-07-02T04:53:16.881Z,15.11
2018-07-02T04:54:16.829Z,15.17
2018-07-02T04:55:16.777Z,15.24
2018-07-02T04:56:16.723Z,15.20
2018-07-02T04:57:16.674Z,15.31
2018-07-02T04:58:16.618Z,15.30
2018-07-02T04:59:16.567Z,15.31
2018-07-02T05:00:16.514Z,15.33
2018-07-02T05:01:16.492Z,15.41
2018-07-02T05:02:16.409Z,15.38
2018-07-02T05:03:16.358Z,15.42
2018-07-02T05:04:16.307Z,15.46
2018-07-02T05:05:16.256Z,15.54
2018-07-02T05:06:16.205Z,15.57
2018-07-02T05:07:16.149Z,15.57
2018-07-02T05:08:16.097Z,15.64
2018-07-02T05:09:16.245Z,15.60
2018-07-02T05:10:15.990Z,15.76
2018-07-02T05:11:15.939Z,15.86
2018-07-02T05:12:15.888Z,15.84
2018-07-02T05:13:15.836Z,15.97
2018-07-02T05:14:15.780Z,15.89
2018-07-02T05:15:15.733Z,15.88
2018-07-02T05:16:15.683Z,15.86
2018-07-02T05:17:15.625Z,15.85
2018-07-02T05:18:15.575Z,15.92
2018-07-02T05:19:15.521Z,15.89
2018-07-02T05:20:15.469Z,15.94
2018-07-02T05:21:15.417Z,15.96
2018-07-02T05:22:15.367Z,16.11
2018-07-02T05:23:15.312Z,16.00
2018-07-02T05:24:15.261Z,16.09
2018-07-02T05:25:15.208Z,16.09
2018-07-02T05:26:15.156Z,16.20
2018-07-02T05:27:15.104Z,16.18
2018-07-02T05:28:15.053Z,16.20
2018-07-02T05:29:15.001Z,16.18
2018-07-02T05:30:14.947Z,16.22
2018-07-02T05:31:14.896Z,16.22
2018-07-02T05:32:14.845Z,16.15
2018-07-02T05:33:14.799Z,16.35
2018-07-02T05:34:14.741Z,16.37
2018-07-02T05:35:14.690Z,16.41
2018-07-02T05:36:14.638Z,16.41
2018-07-02T05:37:14.587Z,16.48
2018-07-02T05:38:14.537Z,16.42
2018-07-02T05:39:14.485Z,16.58
2018-07-02T05:40:14.430Z,16.56
2018-07-02T05:41:14.379Z,16.59
2018-07-02T05:42:14.329Z,16.68
2018-07-02T05:43:14.276Z,16.73
2018-07-02T05:44:14.225Z,16.73
2018-07-02T05:45:14.173Z,16.80
2018-07-02T05:46:14.121Z,16.70
2018-07-02T05:47:14.069Z,16.77
2018-07-02T05:48:14.019Z,16.95
2018-07-02T05:49:13.968Z,16.93
2018-07-02T05:50:13.916Z,16.98
2018-07-02T05:51:13.863Z,16.98
2018-07-02T05:52:13.818Z,17.13
2018-07-02T05:53:13.762Z,17.15
2018-07-02T05:54:13.713Z,17.17
2018-07-02T05:55:13.659Z,17.18
2018-07-02T05:56:13.608Z,17.35
2018-07-02T05:57:13.559Z,17.25
2018-07-02T05:58:13.505Z,17.33
2018-07-02T05:59:13.454Z,17.36
2018-07-02T06:00:13.457Z,17.50
2018-07-02T06:01:13.358Z,17.50
2018-07-02T06:02:13.300Z,17.64
2018-07-02T06:03:13.249Z,17.63
2018-07-02T06:04:13.199Z,17.71
2018-07-02T06:05:13.149Z,17.66
2018-07-02T06:06:13.096Z,17.69
2018-07-02T06:07:13.049Z,17.69
2018-07-02T06:08:12.996Z,17.76
2018-07-02T06:09:12.942Z,17.79
2018-07-02T06:10:12.894Z,17.84
2018-07-02T06:11:12.847Z,17.87
2018-07-02T06:12:12.790Z,17.85
2018-07-02T06:13:12.790Z,17.99
2018-07-02T06:14:12.689Z,18.06
2018-07-02T06:15:12.638Z,18.12
2018-07-02T06:16:12.589Z,18.24
2018-07-02T06:17:12.540Z,18.17
2018-07-02T06:18:12.486Z,18.28
2018-07-02T06:19:12.435Z,18.36
2018-07-02T06:20:12.385Z,18.39
2018-07-02T06:21:12.339Z,18.44
2018-07-02T06:22:12.284Z,18.43
2018-07-02T06:23:12.233Z,18.43
2018-07-02T06:24:12.181Z,18.46
2018-07-02T06:25:12.132Z,18.49
2018-07-02T06:26:12.080Z,18.54
2018-07-02T06:27:12.035Z,18.76
2018-07-02T06:28:11.981Z,18.74
2018-07-02T06:29:11.932Z,18.79
2018-07-02T06:30:11.881Z,18.84
2018-07-02T06:31:11.829Z,18.80
2018-07-02T06:32:11.782Z,18.83
2018-07-02T06:33:11.727Z,18.84
2018-07-02T06:34:11.676Z,18.91
2018-07-02T06:35:11.626Z,18.91
2018-07-02T06:36:11.583Z,18.95
2018-07-02T06:37:11.529Z,18.92
2018-07-02T06:38:11.476Z,18.95
2018-07-02T06:39:11.425Z,19.02
2018-07-02T06:40:11.380Z,19.18
2018-07-02T06:41:11.325Z,19.18
2018-07-02T06:42:11.281Z,19.25
2018-07-02T06:43:11.229Z,19.29
2018-07-02T06:44:11.180Z,19.32
2018-07-02T06:45:11.129Z,19.39
2018-07-02T06:46:11.080Z,19.35
2018-07-02T06:47:11.027Z,19.36
2018-07-02T06:48:10.976Z,19.48
2018-07-02T06:49:10.932Z,19.54
2018-07-02T06:50:10.878Z,19.47
2018-07-02T06:51:10.827Z,19.50
2018-07-02T06:52:10.776Z,19.51
2018-07-02T06:53:10.728Z,19.58
2018-07-02T06:54:10.679Z,19.61
2018-07-02T06:55:10.628Z,19.72
2018-07-02T06:56:10.580Z,19.76
2018-07-02T06:57:10.528Z,19.78
2018-07-02T06:58:10.480Z,19.93
2018-07-02T06:59:10.435Z,19.83
2018-07-02T07:00:10.379Z,19.87
2018-07-02T07:01:10.333Z,19.86
2018-07-02T07:02:10.281Z,19.91
2018-07-02T07:03:10.231Z,19.95
2018-07-02T07:04:10.184Z,19.93
2018-07-02T07:05:10.131Z,20.02
2018-07-02T07:06:10.085Z,20.08
2018-07-02T07:07:10.033Z,20.06
2018-07-02T07:08:09.983Z,20.13
2018-07-02T07:09:09.935Z,20.24
2018-07-02T07:10:09.884Z,20.23
2018-07-02T07:11:09.834Z,20.33
2018-07-02T07:12:09.788Z,20.28
2018-07-02T07:13:09.737Z,20.38
2018-07-02T07:14:09.687Z,20.50
2018-07-02T07:15:09.642Z,20.56
2018-07-02T07:16:09.589Z,20.64
2018-07-02T07:17:09.540Z,20.59
2018-07-02T07:18:09.493Z,20.68
2018-07-02T07:19:09.441Z,20.66
2018-07-02T07:20:09.396Z,20.71
2018-07-02T07:21:09.345Z,20.81
2018-07-02T07:22:09.296Z,20.74
2018-07-02T07:23:09.247Z,20.71
2018-07-02T07:24:09.197Z,20.87
2018-07-02T07:25:09.152Z,20.96
2018-07-02T07:26:09.099Z,20.95
2018-07-02T07:27:09.050Z,21.04
2018-07-02T07:28:09.001Z,21.04
2018-07-02T07:29:08.955Z,21.11
2018-07-02T07:30:08.904Z,21.02
2018-07-02T07:31:08.901Z,21.02
2018-07-02T07:32:08.808Z,21.02
2018-07-02T07:33:08.759Z,21.13
2018-07-02T07:34:08.711Z,21.14
2018-07-02T07:35:08.661Z,21.35
2018-07-02T07:36:08.613Z,21.45
2018-07-02T07:37:08.571Z,21.56
2018-07-02T07:38:08.515Z,21.56
2018-07-02T07:39:08.468Z,21.66
2018-07-02T07:40:08.419Z,21.69
2018-07-02T07:41:08.376Z,21.54
2018-07-02T07:42:08.322Z,21.53
2018-07-02T07:43:08.275Z,21.56
2018-07-02T07:44:08.228Z,21.48
2018-07-02T07:45:08.179Z,21.61
2018-07-02T07:46:08.129Z,21.74
2018-07-02T07:47:08.082Z,21.88
2018-07-02T07:48:08.033Z,21.90
2018-07-02T07:49:07.984Z,21.94
2018-07-02T07:50:07.935Z,21.97
2018-07-02T07:51:07.898Z,21.95
2018-07-02T07:52:07.840Z,22.10
2018-07-02T07:53:07.855Z,22.07
2018-07-02T07:54:07.745Z,22.23
2018-07-02T07:55:07.696Z,22.31
2018-07-02T07:56:07.646Z,22.37
2018-07-02T07:57:07.600Z,22.54
2018-07-02T07:58:07.550Z,22.37
2018-07-02T07:59:07.502Z,22.38
2018-07-02T08:00:07.455Z,22.54
2018-07-02T08:01:07.408Z,22.68
2018-07-02T08:02:07.362Z,22.67
2018-07-02T08:03:07.312Z,22.72
2018-07-02T08:04:07.289Z,22.65
2018-07-02T08:05:07.221Z,22.56
2018-07-02T08:06:07.168Z,22.69
2018-07-02T08:07:07.122Z,22.71
2018-07-02T08:08:07.073Z,22.96
2018-07-02T08:09:07.026Z,22.94
2018-07-02T08:10:06.980Z,22.92
2018-07-02T08:11:06.930Z,22.92
2018-07-02T08:12:06.882Z,22.92
2018-07-02T08:13:06.839Z,22.97
2018-07-02T08:14:06.789Z,23.07
2018-07-02T08:15:06.739Z,23.01
2018-07-02T08:16:06.694Z,23.05
2018-07-02T08:17:06.646Z,23.04
2018-07-02T08:18:06.598Z,23.05
2018-07-02T08:19:06.578Z,23.05
2018-07-02T08:20:06.503Z,23.11
2018-07-02T08:21:06.455Z,23.07
2018-07-02T08:22:06.406Z,23.31
2018-07-02T08:23:06.364Z,23.42
2018-07-02T08:24:06.313Z,23.60
2018-07-02T08:25:06.267Z,23.52
2018-07-02T08:26:06.220Z,23.49
2018-07-02T08:27:06.172Z,23.45
2018-07-02T08:28:06.132Z,23.32
2018-07-02T08:29:06.079Z,23.43
2018-07-02T08:30:06.031Z,23.62
2018-07-02T08:31:05.984Z,23.64
2018-07-02T08:32:05.938Z,23.68
2018-07-02T08:33:05.896Z,23.79
2018-07-02T08:34:05.842Z,23.95
2018-07-02T08:35:05.798Z,23.95
2018-07-02T08:36:05.749Z,23.83
2018-07-02T08:37:05.708Z,23.85
2018-07-02T08:38:05.656Z,23.86
2018-07-02T08:39:05.611Z,23.94
2018-07-02T08:40:05.565Z,23.94
2018-07-02T08:41:05.517Z,24.10
2018-07-02T08:42:05.472Z,24.35
2018-07-02T08:43:05.423Z,24.29
2018-07-02T08:44:05.377Z,24.32
2018-07-02T08:45:05.336Z,24.31
2018-07-02T08:46:05.285Z,24.22
2018-07-02T08:47:05.241Z,24.19
2018-07-02T08:48:05.193Z,24.05
2018-07-02T08:49:05.149Z,24.14
2018-07-02T08:50:05.099Z,24.19
2018-07-02T08:51:05.056Z,24.26
2018-07-02T08:52:05.011Z,24.29
2018-07-02T08:53:04.964Z,24.05
2018-07-02T08:54:04.914Z,24.22
2018-07-02T08:55:04.869Z,24.24
2018-07-02T08:56:04.824Z,24.16
2018-07-02T08:57:04.776Z,24.26
2018-07-02T08:58:04.729Z,24.31
2018-07-02T08:59:04.684Z,24.27
2018-07-02T09:00:04.640Z,24.49
2018-07-02T09:01:04.593Z,24.63
2018-07-02T09:02:04.547Z,24.64
2018-07-02T09:03:04.500Z,24.69
2018-07-02T09:04:04.454Z,24.83
2018-07-02T09:05:04.409Z,24.88
2018-07-02T09:06:04.362Z,24.80
2018-07-02T09:07:04.317Z,24.76
2018-07-02T09:08:04.270Z,24.82
2018-07-02T09:09:04.226Z,24.85
2018-07-02T09:10:04.179Z,24.92
2018-07-02T09:11:04.133Z,24.83
2018-07-02T09:12:04.320Z,24.97
2018-07-02T09:13:04.086Z,24.90
2018-07-02T09:14:04.002Z,24.90
2018-07-02T09:15:03.954Z,24.83
2018-07-02T09:16:04.015Z,24.73
2018-07-02T09:17:03.861Z,24.73
2018-07-02T09:18:03.814Z,24.79
2018-07-02T09:19:03.772Z,24.92
2018-07-02T09:20:03.723Z,24.87
2018-07-02T09:21:03.679Z,24.90
2018-07-02T09:22:03.633Z,25.01
2018-07-02T09:23:03.587Z,25.00
2018-07-02T09:24:03.543Z,24.95
2018-07-02T09:25:03.499Z,24.79
2018-07-02T09:26:03.454Z,24.76
2018-07-02T09:27:03.404Z,24.90
2018-07-02T09:28:03.360Z,24.97
2018-07-02T09:29:03.323Z,24.91
2018-07-02T09:30:03.273Z,24.92
2018-07-02T09:31:03.223Z,25.00
2018-07-02T09:32:03.178Z,25.15
2018-07-02T09:33:03.132Z,25.25
2018-07-02T09:34:03.086Z,25.34
2018-07-02T09:35:03.041Z,25.49
2018-07-02T09:36:02.996Z,25.49
2018-07-02T09:37:02.953Z,25.71
2018-07-02T09:38:03.047Z,25.59
2018-07-02T09:39:02.863Z,25.37
2018-07-02T09:40:02.816Z,25.19
2018-07-02T09:41:02.771Z,25.17
2018-07-02T09:42:02.725Z,25.25
2018-07-02T09:43:02.683Z,25.28
2018-07-02T09:44:02.633Z,25.15
2018-07-02T09:45:02.593Z,25.17
2018-07-02T09:46:02.543Z,25.17
2018-07-02T09:47:02.499Z,25.37
2018-07-02T09:48:02.454Z,25.42
2018-07-02T09:49:02.409Z,25.27
2018-07-02T09:50:02.371Z,25.15
2018-07-02T09:51:02.319Z,25.16
2018-07-02T09:52:02.276Z,25.19
2018-07-02T09:53:02.229Z,25.22
2018-07-02T09:54:02.185Z,25.31
2018-07-02T09:55:02.140Z,25.35
2018-07-02T09:56:02.094Z,25.32
2018-07-02T09:57:02.048Z,25.38
2018-07-02T09:58:02.004Z,25.59
2018-07-02T09:59:01.957Z,25.57
2018-07-02T10:00:01.912Z,25.83
2018-07-02T10:01:01.868Z,25.98
2018-07-02T10:02:01.822Z,25.87
2018-07-02T10:03:01.777Z,25.87
2018-07-02T10:04:01.740Z,25.97
2018-07-02T10:05:01.693Z,25.90
2018-07-02T10:06:01.641Z,25.93
2018-07-02T10:07:01.599Z,25.90
2018-07-02T10:08:01.556Z,26.20
2018-07-02T10:09:01.511Z,26.04
2018-07-02T10:10:01.464Z,26.08
2018-07-02T10:11:01.419Z,26.18
2018-07-02T10:12:01.381Z,26.31
2018-07-02T10:13:01.332Z,26.22
2018-07-02T10:14:01.285Z,26.32
2018-07-02T10:15:01.243Z,26.28
2018-07-02T10:16:01.199Z,26.40
2018-07-02T10:17:01.156Z,26.49
2018-07-02T10:18:01.109Z,26.46
2018-07-02T10:19:01.063Z,26.49
2018-07-02T10:20:01.022Z,26.57
2018-07-02T10:21:00.974Z,26.49
2018-07-02T10:22:00.931Z,26.36
2018-07-02T10:23:00.887Z,26.35
2018-07-02T10:24:00.890Z,26.36
2018-07-02T10:25:00.798Z,26.35
2018-07-02T10:26:00.813Z,26.22
2018-07-02T10:27:00.710Z,26.32
2018-07-02T10:28:00.668Z,26.40
2018-07-02T10:29:00.630Z,26.58
2018-07-02T10:30:00.579Z,26.65
2018-07-02T10:31:00.547Z,26.61
2018-07-02T10:32:00.495Z,26.65
2018-07-02T10:33:00.445Z,26.54
2018-07-02T10:34:00.402Z,26.67
2018-07-02T10:35:00.363Z,26.91
2018-07-02T10:36:00.317Z,26.92
2018-07-02T10:37:00.272Z,27.09
2018-07-02T10:38:00.229Z,27.26
2018-07-02T10:39:00.234Z,27.33
2018-07-02T10:40:00.225Z,26.89
2018-07-02T10:41:00.096Z,27.02
2018-07-02T10:42:00.052Z,27.19
2018-07-02T10:43:00.008Z,27.36
2018-07-02T10:43:59.964Z,27.29
2018-07-02T10:44:59.921Z,27.20
2018-07-02T10:45:59.877Z,26.95
2018-07-02T10:46:59.878Z,26.74
2018-07-02T10:47:59.791Z,26.73
2018-07-02T10:48:59.745Z,26.77
2018-07-02T10:49:59.702Z,26.81
2018-07-02T10:50:59.660Z,27.04
2018-07-02T10:51:59.617Z,27.20
2018-07-02T10:52:59.573Z,27.16
2018-07-02T10:53:59.529Z,26.80
2018-07-02T10:54:59.486Z,26.46
2018-07-02T10:55:59.444Z,26.37
2018-07-02T10:56:59.399Z,26.12
2018-07-02T10:57:59.355Z,26.05
2018-07-02T10:58:59.312Z,26.04
2018-07-02T10:59:59.268Z,25.90
2018-07-02T11:00:59.223Z,26.04
2018-07-02T11:01:59.179Z,26.25
2018-07-02T11:02:59.139Z,26.54
2018-07-02T11:03:59.093Z,26.77
2018-07-02T11:04:59.054Z,26.79
2018-07-02T11:05:59.004Z,26.76
2018-07-02T11:06:58.965Z,26.64
2018-07-02T11:07:58.916Z,26.69
2018-07-02T11:08:58.872Z,26.76
2018-07-02T11:09:58.828Z,26.69
2018-07-02T11:10:58.787Z,26.79
2018-07-02T11:11:58.742Z,26.68
2018-07-02T11:12:58.698Z,26.65
2018-07-02T11:13:58.651Z,26.62
2018-07-02T11:14:58.611Z,26.81
2018-07-02T11:15:58.566Z,26.84
2018-07-02T11:16:58.523Z,26.74
2018-07-02T11:17:58.478Z,26.72
2018-07-02T11:18:58.437Z,26.76
2018-07-02T11:19:58.390Z,26.95
2018-07-02T11:20:58.349Z,27.17
2018-07-02T11:21:58.303Z,27.26
2018-07-02T11:22:58.259Z,27.26
2018-07-02T11:23:58.215Z,27.32
2018-07-02T11:24:58.172Z,27.26
2018-07-02T11:25:58.128Z,27.20
2018-07-02T11:26:58.084Z,27.11
2018-07-02T11:27:58.040Z,26.99
2018-07-02T11:28:57.997Z,27.01
2018-07-02T11:29:57.951Z,27.05
2018-07-02T11:30:57.908Z,27.10
2018-07-02T11:31:57.868Z,27.16
2018-07-02T11:32:57.853Z,27.29
2018-07-02T11:33:57.783Z,27.46
2018-07-02T11:34:57.735Z,27.54
2018-07-02T11:35:57.693Z,27.73
2018-07-02T11:36:57.649Z,27.89
2018-07-02T11:37:57.605Z,27.85
2018-07-02T11:38:57.562Z,27.86
2018-07-02T11:39:57.521Z,27.76
2018-07-02T11:40:57.481Z,27.50
2018-07-02T11:41:57.432Z,27.54
2018-07-02T11:42:57.390Z,27.54
2018-07-02T11:43:57.345Z,27.74
2018-07-02T11:44:57.304Z,27.89
2018-07-02T11:45:57.261Z,27.96
2018-07-02T11:46:57.226Z,27.98
2018-07-02T11:47:57.175Z,27.89
2018-07-02T11:48:57.131Z,27.88
2018-07-02T11:49:57.088Z,27.41
2018-07-02T11:50:57.044Z,27.24
2018-07-02T11:51:57.003Z,27.14
2018-07-02T11:52:56.961Z,27.04
2018-07-02T11:53:56.920Z,27.16
2018-07-02T11:54:56.877Z,27.28
2018-07-02T11:55:56.830Z,27.14
2018-07-02T11:56:56.789Z,26.96
2018-07-02T11:57:56.746Z,27.01
2018-07-02T11:58:56.700Z,27.20
2018-07-02T11:59:56.658Z,27.32
2018-07-02T12:00:56.618Z,27.66
2018-07-02T12:01:56.617Z,27.82
2018-07-02T12:02:56.528Z,27.80
2018-07-02T12:03:56.490Z,27.86
2018-07-02T12:04:56.444Z,27.91
2018-07-02T12:05:56.442Z,27.84
2018-07-02T12:06:56.358Z,27.85
2018-07-02T12:07:56.315Z,27.82
2018-07-02T12:08:56.271Z,27.67
2018-07-02T12:09:56.260Z,27.77
2018-07-02T12:10:56.185Z,27.95
2018-07-02T12:11:56.142Z,27.95
2018-07-02T12:12:56.101Z,27.96
2018-07-02T12:13:56.057Z,27.84
2018-07-02T12:14:56.013Z,27.73
2018-07-02T12:15:55.971Z,27.54
2018-07-02T12:16:55.929Z,27.62
2018-07-02T12:17:55.884Z,27.70
2018-07-02T12:18:55.843Z,27.84
2018-07-02T12:19:55.800Z,27.99
2018-07-02T12:20:55.754Z,28.07
2018-07-02T12:21:55.712Z,28.21
2018-07-02T12:22:55.672Z,28.17
2018-07-02T12:23:55.625Z,28.11
2018-07-02T12:24:55.585Z,28.14
2018-07-02T12:25:55.543Z,28.19
2018-07-02T12:26:55.500Z,28.17
2018-07-02T12:27:55.463Z,28.40
2018-07-02T12:28:55.417Z,28.51
2018-07-02T12:29:55.370Z,28.62
2018-07-02T12:30:55.328Z,28.70
2018-07-02T12:31:55.286Z,28.65
2018-07-02T12:32:55.242Z,28.56
2018-07-02T12:33:55.200Z,28.51
2018-07-02T12:34:55.157Z,28.41
2018-07-02T12:35:55.115Z,28.44
2018-07-02T12:36:55.072Z,28.47
2018-07-02T12:37:55.032Z,28.50
2018-07-02T12:38:54.987Z,28.54
2018-07-02T12:39:54.945Z,28.38
2018-07-02T12:40:54.904Z,28.36
2018-07-02T12:41:54.864Z,28.32
2018-07-02T12:42:54.819Z,27.99
2018-07-02T12:43:54.777Z,27.86
2018-07-02T12:44:54.735Z,27.80
2018-07-02T12:45:54.690Z,27.88
2018-07-02T12:46:54.651Z,27.80
2018-07-02T12:47:54.606Z,27.73
2018-07-02T12:48:54.563Z,27.43
2018-07-02T12:49:54.521Z,27.54
2018-07-02T12:50:54.478Z,27.64
2018-07-02T12:51:54.435Z,27.91